Tiempo atmosférico en la estación meteorológica de Puerto De Leitariegos, Asturias (1550 m.)



Fecha
DESCASC
Temp. máxima en grados centígrados (hora)
DESCASC
Temp. mínima en grados centígrados (hora)
DESCASC
Temp. media en grados centígrados
DESCASC
Racha de viento máxima en m/sg (hora)
DESCASC
Velocidad máxima media en intervalos de 10 minutos(hora)
DESCASC
Precipitaciones diarias en mm
DESCASC
Precipitaciones de 00:00 a 06:00 en mm
DESCASC
Precipitaciones de 06:00 a 12:00 en mm
DESCASC
Precipitaciones de 12:00 a 18:00 en mm
DESCASC
Precipitaciones de 18:00 a 24:00 en mm
DESCASC
18-04-2019 8.7 (14:30) 1.3 (08:10) 5 7.22 (04:20) 5.28 (10:20) 10.8 5.4 0 5 0.4
17-04-2019 12.7 (16:20) 4.8 (23:50) 8.8 23.33 (13:10) 13.33 (14:20) 10.2 0 0 0 10.2
16-04-2019 11.5 (16:20) -1.4 (-00:0) 5.1 11.11 (23:59) 7.22 (23:59) 0 0 0 0 0
15-04-2019 10.5 (14:30) 1.9 (00:00) 6.2 25 (13:30) 11.67 (13:50) -- -- 8.8 4.8 2.2
14-04-2019 13.8 (17:40) 5.3 (00:00) 9.6 8.33 (02:00) 4.44 (02:00) -- -- -- -- --
13-04-2019 13.1 (15:40) 2.4 (00:00) 7.8 8.06 (12:50) 3.89 (11:10) -- -- -- -- --
12-04-2019 11 (16:30) -2.3 (-00:0) 4.4 5 (20:40) 3.33 (20:30) -- -- -- -- --
11-04-2019 4.7 (17:20) -2.5 (-00:0) 1.1 5.83 (00:40) 4.72 (05:50) -- -- -- -- --
10-04-2019 1.6 (16:10) -1 (-00:0) 0.3 18.61 (13:00) 10 (13:00) -- -- -- -- --
09-04-2019 4.7 (15:00) -0.8 (-00:0) 1.9 13.89 (00:20) 6.67 (00:20) 5.2 0.2 0 3.2 1.8
08-04-2019 4.8 (16:50) -0.6 (-00:0) 2.1 15 (18:10) 7.22 (09:00) -- -- -- -- 0
07-04-2019 2.8 (11:30) -5.6 (-00:0) -1.4 9.44 (16:10) 6.11 (16:30) -- -- -- -- --
06-04-2019 2 (14:10) -3 (-00:0) -0.5 12.22 (04:30) 7.5 (19:10) -- -- -- -- --
05-04-2019 1.5 (17:20) -3.2 (-00:0) -0.9 13.06 (12:20) 7.22 (09:50) -- -- -- -- --
04-04-2019 0.9 (13:20) -5.3 (-00:0) -2.2 12.78 (10:50) 6.67 (06:20) -- -- -- -- --
03-04-2019 0.2 (00:00) -4.6 (-00:0) -2.2 17.5 (12:30) 10.28 (14:20) -- -- -- -- --
02-04-2019 8.1 (15:00) 0.2 (00:00) 4.2 10.28 (17:00) 6.67 (19:30) 0 0 0 0 0
01-04-2019 10.1 (16:40) 0.8 (00:00) 5.5 10.83 (17:40) 6.39 (18:40) 0 0 0 0 0
31-03-2019 12.1 (13:50) 2.7 (00:00) 7.4 9.17 (14:10) 5.56 (14:10) 0.2 0 0 0 0.2
30-03-2019 10.1 (14:00) 2.5 (00:00) 6.3 7.78 (16:30) 5 (16:20) 0.8 0 0 0.8 0
29-03-2019 14 (13:50) 3 (00:00) 8.5 10 (14:50) 5.56 (19:20) 0 0 0 0 0
28-03-2019 14 (12:20) 2.9 (00:00) 8.5 8.33 (09:20) 5.56 (16:00) -- -- -- -- --
27-03-2019 16.2 (12:40) 3.5 (00:00) 9.9 11.67 (11:10) 7.5 (09:50) -- -- -- -- --
26-03-2019 15.7 (15:30) -2.1 (-00:0) 6.8 16.67 (12:20) 8.89 (12:20) -- -- -- -- --
25-03-2019 11.8 (11:40) 0.6 (00:00) 6.2 9.44 (21:20) 5.56 (12:30) -- -- -- -- --
24-03-2019 15.4 (12:20) 2.4 (00:00) 8.9 9.17 (15:30) 5.28 (15:40) -- -- -- -- --
23-03-2019 15.9 (15:10) 1.8 (00:00) 8.8 9.17 (13:30) 4.44 (16:10) -- -- -- -- --
22-03-2019 13.3 (13:50) -1.3 (-00:0) 6 9.17 (17:40) 5.28 (17:40) -- -- -- -- --
21-03-2019 11 (12:10) -1.4 (-00:0) 4.8 7.22 (14:50) 5.28 (14:10) -- -- -- 0 0

Gráficas

Temp. máximas Temp. mínimas Temp. medias Precipitaciones Rachas de viento máximas Velocidades máximas media en intervalos de 10 minutos

Datos horarios

Fecha y hora oficial Temperatura (ºC) Velocidad del viento (km/h) Dirección del viento Racha (km/h) Dirección de racha Precipitación (mm) Presión (hPa) Tendencia (hPa) Humedad (%)
2019-04-19 23:00:00 6.4 9 Noroeste 20 Noroeste 0 853.9 2.2 95
2019-04-19 22:00:00 8 12 Oeste 35 Sur 0 852.8 1.7 83
2019-04-19 21:00:00 8.3 9 Sur 22 Sur 0 852 1.8 80
2019-04-19 20:00:00 9.1 6 Noroeste 19 Noroeste 0 851.7 1.8 88
2019-04-19 19:00:00 9 18 Noroeste 32 Sur 0 851.1 1.4 90
2019-04-19 18:00:00 10.8 23 Sur 58 Sudeste 0 850.2 0.8 68
2019-04-19 17:00:00 11 33 Sudeste 72 Sudeste 0 849.9 0.9 64
2019-04-19 16:00:00 11.3 32 Sudeste 65 Sudeste 0 849.7 1.2 62
2019-04-19 15:00:00 10.1 28 Sudeste 52 Sudeste 0 849.4 1.4 66
2019-04-19 14:00:00 8 23 Sudeste 41 Sudeste 0 849 1.7 76
2019-04-19 13:00:00 7.5 26 Sur 46 Sudeste 0 848.5 1.2 76
2019-04-19 12:00:00 7.7 29 Sudeste 55 Sur 0 848 1.5 73
2019-04-19 11:00:00 6.4 30 Sudeste 48 Sudeste 0 847.3 1.4 81
2019-04-19 10:00:00 5.2 13 Sur 33 Sur 0 847.3 2.2 85
2019-04-19 09:00:00 4.5 19 Sur 35 Sur 0.4 846.5 1.8 89
2019-04-19 08:00:00 4.4 11 Sur 19 Sur 0 845.9 0.9 91
2019-04-19 07:00:00 5.2 7 Sudoeste 29 Noroeste 0 845.1 -0.2 82
2019-04-19 06:00:00 5.2 10 Sudeste 41 Sudeste 0 844.7 -0.6 83
2019-04-19 05:00:00 5.1 10 Nordeste 41 Sudeste 0 845 -0.6 83
2019-04-19 04:00:00 4.6 8 Sur 23 Sur 0.2 845.3 -0.4 83
2019-04-19 03:00:00 4.2 7 Oeste 20 Oeste 0.4 845.3 -0.7 86
2019-04-19 02:00:00 3.9 6 Noroeste 17 Noroeste 0 845.6 -0.4 94
2019-04-19 01:00:00 3.8 10 Noroeste 20 Noroeste 0 845.7 0 94
2019-04-19 00:00:00 4 7 Oeste 16 Noroeste 0 846 0.8 90
2019-04-18 23:00:00 3.8 13 Noroeste 19 Noroeste 0 846 1.2 94
2019-04-18 22:00:00 4.1 6 Norte 17 Norte 0 845.7 1.4 91
2019-04-18 21:00:00 4.3 9 Noroeste 26 Noroeste 0.2 845.2 1.1 90
2019-04-18 20:00:00 4.4 12 Noroeste 19 Noroeste 0.2 844.8 0.8 90
2019-04-18 19:00:00 5.4 12 Noroeste 23 Noroeste 0 844.3 0.1 90
2019-04-18 18:00:00 5.2 9 Nordeste 21 Nordeste 1 844.1 0 89
2019-04-18 17:00:00 6 6 Norte 17 Noroeste 0 844 -0.2 83
2019-04-18 16:00:00 -- 7 Oeste 24 Noroeste 3.8 844.2 -0.2 82
2019-04-18 15:00:00 8.5 4 Sudeste 20 Sudeste 0.2 844.1 -0.1 65
2019-04-18 14:00:00 7 9 Sudeste 21 Sudeste 0 844.2 0.4 76
2019-04-18 13:00:00 6.3 10 Sudeste 18 Sur 0 844.4 1.3 75
2019-04-18 12:00:00 5.5 9 Sudeste 23 Sudeste 0 844.2 1.3 80
2019-04-18 11:00:00 4.7 14 Sudeste 24 Sudeste 0 843.8 1.5 88
2019-04-18 10:00:00 3.6 15 Sudeste 23 Sur 0 843.1 1.4 90
2019-04-18 09:00:00 2.4 9 Sur 16 Sur 0 842.9 1.4 95
2019-04-18 08:00:00 1.4 8 Sudeste 13 Sur 0 842.3 1 92
2019-04-18 07:00:00 2.1 6 Este 13 Sudeste 0 841.7 0.7 91
2019-04-18 06:00:00 2.4 5 Sudeste 14 Sudeste 0.2 841.5 0.5 92
2019-04-18 05:00:00 2.8 14 Sudeste 26 Sudeste 1 841.3 0.6 90
2019-04-18 04:00:00 3.9 6 Norte 21 Sudeste 2.4 841 0.5 91
2019-04-18 03:00:00 4.4 9 Sudeste 21 Sudeste 1.6 841 0.8 94
2019-04-18 02:00:00 4.9 8 Sudeste 18 Sudeste 0 840.7 0.5 92
2019-04-18 01:00:00 4.8 4 Sudeste 19 Sudeste 0.2 840.5 0.1 91
2019-04-18 00:00:00 4.8 19 Sudeste 40 Sudeste 2.8 840.2 0.3 93
2019-04-17 23:00:00 5.3 16 Sudeste 36 Sudeste 3.2 840.2 1.4 87
2019-04-17 22:00:00 6 15 Sudeste 31 Sur 2.8 840.4 1.5 86
2019-04-17 21:00:00 6.7 14 Sudeste 55 Sudeste 1.4 839.9 1.5 86
2019-04-17 20:00:00 10.2 34 Sudeste 59 Sudeste 0 838.8 0.4 58
2019-04-17 19:00:00 10.7 41 Sudeste 72 Sudeste 0 838.9 0.2 49
2019-04-17 18:00:00 11.1 36 Sudeste 68 Sudeste 0 838.4 -0.6 49
2019-04-17 17:00:00 11.7 41 Sudeste 67 Sudeste 0 838.4 -0.8 47
2019-04-17 16:00:00 12.1 38 Sudeste 75 Sudeste 0 838.7 -1 46
2019-04-17 15:00:00 11.1 48 Sudeste 82 Sudeste 0 839 -0.6 53
2019-04-17 14:00:00 10.6 41 Sudeste 84 Sudeste 0 839.2 -0.4 55
2019-04-17 13:00:00 10.9 41 Sudeste 76 Sudeste 0 839.7 0.5 55
2019-04-17 12:00:00 10.7 40 Sudeste 79 Sudeste 0 839.6 0.1 54
2019-04-17 11:00:00 10.6 38 Sudeste 76 Sudeste 0 839.6 0.1 55
2019-04-17 10:00:00 9.2 36 Sudeste 64 Sudeste 0 839.2 -0.5 57
2019-04-17 09:00:00 8.2 34 Sudeste 67 Sudeste 0 839.5 -0.6 58
2019-04-17 08:00:00 7.5 30 Sudeste 68 Sudeste 0 839.5 -1 59
2019-04-17 07:00:00 7 30 Sudeste 66 Sudeste 0 839.7 -1.3 62
2019-04-17 06:00:00 7.6 24 Sudeste 42 Sudeste 0 840.1 -1.9 61
2019-04-17 05:00:00 5.6 23 Sudeste 42 Sudeste 0 840.5 -2 68
2019-04-17 04:00:00 6.4 28 Sudeste 44 Sudeste 0 841 -2.2 64
2019-04-17 03:00:00 5.5 26 Sudeste 40 Sudeste 0 842 -1.4 65
2019-04-17 02:00:00 5.8 24 Sudeste 39 Sudeste 0 842.5 -1.5 63
2019-04-17 01:00:00 5.7 23 Sudeste 40 Sudeste 0 843.2 -1.3 63
2019-04-17 00:00:00 6.2 26 Sudeste 40 Sudeste 0 843.4 -1.2 60
2019-04-16 23:00:00 5.5 18 Sudeste 26 Sudeste 0 844 -0.6 63
2019-04-16 22:00:00 6.2 15 Sudeste 26 Sudeste 0 844.5 -0.4 60
2019-04-16 21:00:00 7.6 16 Sudeste 36 Sudeste 0 844.6 -0.4 55
2019-04-16 20:00:00 9.2 22 Sudeste 33 Sudeste 0 844.6 -1.2 50
2019-04-16 19:00:00 10.3 21 Sudeste 38 Sudeste 0 844.9 -1 50
2019-04-16 18:00:00 11.2 19 Sudeste 36 Sudeste 0 845 -1.4 46
2019-04-16 17:00:00 11 14 Sudeste 39 Sur 0 845.8 -0.8 41
2019-04-16 16:00:00 11 21 Sudeste 32 Sudeste 0 845.9 -1 43
2019-04-16 15:00:00 10.6 18 Sudeste 34 Sudeste 0 846.4 -0.7 46
2019-04-16 14:00:00 10 16 Sudeste 32 Sudeste 0 846.6 -0.5 46
2019-04-16 13:00:00 8.7 20 Sudeste 34 Sudeste 0 846.9 -0.4 52
2019-04-16 12:00:00 6.7 21 Sudeste 30 Sudeste 0 847.1 -0.2 71
2019-04-16 11:00:00 4.2 17 Sudeste 26 Sudeste 0 847.1 0.1 80
2019-04-16 10:00:00 2.9 19 Sur 30 Sur 0 847.3 0.2 84
2019-04-16 09:00:00 1.4 21 Sur 32 Sur 0 847.3 0.1 83
2019-04-16 08:00:00 -1.3 13 Sudeste 15 Sudeste 0 847 0.1 94
2019-04-16 07:00:00 -0.7 9 Sudeste 11 Sur 0 847.1 0.2 92
2019-04-16 06:00:00 0 7 Sudeste 11 Sudeste 0 847.2 -0.3 87
2019-04-16 05:00:00 0.2 6 Sudeste 12 Sur 0 846.9 -0.4 85
2019-04-16 04:00:00 0.6 7 Sur 11 Sur 0 846.9 -0.2 86
2019-04-16 03:00:00 0.6 5 Sur 12 Sur 0 847.5 0.4 84
2019-04-16 02:00:00 0.6 4 Sudeste 11 Oeste 0 847.3 0.6 85
2019-04-16 01:00:00 1 3 Oeste 11 Noroeste 0 847.1 1.2 82
2019-04-16 00:00:00 2.1 6 Oeste 23 Noroeste 0 847.1 1.9 81
2019-04-15 23:00:00 2 6 Noroeste 16 Noroeste 0 846.7 2.3 83
2019-04-15 22:00:00 3.1 7 Noroeste 16 Oeste 0 845.9 2.3 86
2019-04-15 21:00:00 3.7 12 Noroeste 30 Oeste 0 845.2 2.5 81
2019-04-15 20:00:00 4.4 9 Noroeste 23 Noroeste 1.4 844.4 2.2 90
2019-04-15 19:00:00 5.4 11 Noroeste 25 Norte 0.8 843.6 1.1 89
2019-04-15 18:00:00 5.9 10 Noroeste 28 Noroeste 0 842.7 1.3 78
2019-04-15 17:00:00 6.3 13 Sudeste 55 Norte 0.8 842.2 1.4 79
2019-04-15 16:00:00 4.6 23 Norte 53 Noroeste 3.2 842.5 1.8 85
2019-04-15 15:00:00 7.7 12 Sur 57 Sudeste 0.6 841.4 0.7 81
2019-04-15 14:00:00 9.8 37 Sudeste 90 Sudeste 0 840.8 -0.2 65
2019-04-15 13:00:00 8.8 34 Sudeste 80 Sudeste 0.2 840.7 0 74
2019-04-15 12:00:00 8.3 35 Sudeste 73 Sudeste 1.2 840.7 -0.6 89
2019-04-15 11:00:00 8.1 17 Sudeste 50 Sudeste 7 841 -0.5 88
2019-04-15 10:00:00 9 22 Sudeste 46 Sudeste 0.6 840.7 -1.4 86
2019-04-15 09:00:00 9.9 22 Sudeste 58 Sudeste 0 841.3 -1.7 75
2019-04-15 08:00:00 9.1 24 Sudeste 39 Sudeste 0 841.5 -2.3 76
2019-04-15 07:00:00 8.1 16 Sudeste 31 Sudeste 0 842.1 -2.5 86
2019-04-15 06:00:00 7.7 13 Sudeste 20 Sudeste 0 843 -2.3 90
2019-04-15 05:00:00 7.3 10 Sudeste 20 Sur 0 843.8 -1.9 90
2019-04-15 04:00:00 7.5 12 Sur 19 Sur 0 844.6 -1.6 89
2019-04-15 03:00:00 7.7 9 Sudeste 17 Sudeste 0 845.3 -1.4 88
2019-04-15 02:00:00 8.4 9 Sudeste 23 Sur 0 845.7 -1.2 84
2019-04-15 01:00:00 8.6 6 Sudeste 23 Sur 0 846.2 -0.7 82
2019-04-15 00:00:00 9.4 13 Sur 25 Sudeste 0 846.7 -0.1 76
2019-04-14 23:00:00 9.2 10 Sur 18 Sur 0 846.9 0 81
2019-04-14 22:00:00 9.4 8 Sur 17 Sur 0 846.9 -0.1 77
2019-04-14 21:00:00 9.9 8 Sur 18 Sur 0 846.8 -0.5 76
2019-04-14 20:00:00 11.1 10 Sur 21 Sudoeste 0 846.9 -0.9 72
2019-04-14 19:00:00 12.4 10 Sur 26 Sudeste 0 847 -1.5 66
2019-04-14 18:00:00 13.2 7 Sur 16 Sur 0 847.3 -1.3 61
2019-04-14 17:00:00 13.5 5 Sudoeste 16 Sudoeste 0 847.8 -1 63
2019-04-14 16:00:00 13 9 Sudoeste 20 Sudoeste 0 848.5 -0.4 63
2019-04-14 15:00:00 12 10 Sudoeste 21 Sudoeste 0 848.6 -0.2 66
2019-04-14 14:00:00 10.1 10 Sur 18 Sudoeste 0 848.8 0.3 73
2019-04-14 13:00:00 11.1 7 Sudeste 13 Sudeste 0 848.9 0.6 72
2019-04-14 12:00:00 9.7 8 Sudoeste 12 Sudoeste 0 848.8 0.4 79
2019-04-14 11:00:00 8.5 7 Sur 14 Sur 0 848.5 0.3 80
2019-04-14 10:00:00 7.5 7 Sudeste 10 Sudeste 0 848.3 0.4 87
2019-04-14 09:00:00 6.4 2 Sur 7 Norte 0 848.4 0.1 90
2019-04-14 08:00:00 5.5 0 Calma 5 Norte 0 848.2 -0.3 89
2019-04-14 07:00:00 5.3 3 Oeste 5 Oeste 0 847.9 -0.9 87
2019-04-14 06:00:00 5.7 4 Noroeste 8 Oeste 0 848.3 -0.7 87
2019-04-14 05:00:00 5.8 4 Sudoeste 9 Norte 0 848.5 -0.8 86
2019-04-14 04:00:00 6.2 4 Noroeste 19 Noroeste 0 848.8 -0.7 84
2019-04-14 03:00:00 6.5 9 Noroeste 29 Noroeste 0 849 -0.7 84
2019-04-14 02:00:00 6.8 16 Noroeste 30 Noroeste 0 849.3 -0.4 83
2019-04-14 01:00:00 5.6 7 Noroeste 23 Oeste 0 849.5 0 87
2019-04-14 00:00:00 6.5 8 Noroeste 13 Sur 0 849.7 0.6 79
2019-04-13 23:00:00 6.5 4 Oeste 12 Noroeste 0 849.7 0.6 80
2019-04-13 22:00:00 6.4 8 Noroeste 13 Noroeste 0 849.5 0.7 76
2019-04-13 21:00:00 7 8 Noroeste 13 Noroeste 0 849.1 0.3 74
2019-04-13 20:00:00 7.9 8 Noroeste 14 Oeste 0 849.1 0.2 68
2019-04-13 19:00:00 9 9 Noroeste 15 Noroeste 0 848.8 -0.4 63
2019-04-13 18:00:00 10.9 7 Oeste 16 Oeste 0 848.8 -0.4 46
2019-04-13 17:00:00 11.4 5 Noroeste 12 Noroeste 0 848.9 -0.2 43
2019-04-13 16:00:00 11.9 5 Oeste 19 Norte 0 849.2 0 38
2019-04-13 15:00:00 11 11 Noroeste 28 Noroeste 0 849.2 -0.1 36
2019-04-13 14:00:00 12.4 5 Sur 23 Sudeste 0 849.1 -0.1 33
2019-04-13 13:00:00 10.7 12 Sur 29 Sur 0 849.2 0 36
2019-04-13 12:00:00 9 11 Sur 22 Sur 0 849.3 0.1 49
2019-04-13 11:00:00 7.9 13 Sudeste 18 Sudeste 0 849.2 0.2 58
2019-04-13 10:00:00 5.7 10 Sudeste 13 Sudeste 0 849.2 0.4 63
2019-04-13 09:00:00 3.9 5 Sudeste 11 Sudeste 0 849.2 0.4 68
2019-04-13 08:00:00 2.4 4 Sudeste 11 Sur 0 849 0.1 73
2019-04-13 07:00:00 3.2 7 Sudeste 10 Sur 0 848.8 -0.2 72
2019-04-13 06:00:00 3.8 4 Sur 9 Sur 0 848.8 -0.6 68
2019-04-13 05:00:00 4 3 Sur 9 Sur 0 848.9 -0.5 65
2019-04-13 04:00:00 3.9 4 Sur 12 Sur 0 849 -0.7 65
2019-04-13 03:00:00 4.2 7 Sur 12 Sur 0 849.4 0 66
2019-04-13 02:00:00 4.2 6 Sur 11 Sudeste 0 849.4 0 81
2019-04-13 01:00:00 3.8 2 Nordeste 8 Sudoeste 0 849.7 0.6 80
2019-04-13 00:00:00 3.8 2 Sudeste 13 Noroeste 0 849.4 0.7 79
2019-04-12 23:00:00 3.8 10 Noroeste 14 Noroeste 0 849.4 0.8 89
2019-04-12 22:00:00 4 12 Noroeste 15 Noroeste 0 849.1 0.5 88
2019-04-12 21:00:00 5.4 8 Noroeste 18 Noroeste 0 848.7 0.1 77
2019-04-12 20:00:00 7.2 9 Noroeste 16 Noroeste 0 848.6 -0.1 65
2019-04-12 19:00:00 9.3 9 Noroeste 15 Noroeste 0 848.6 -0.7 54
2019-04-12 18:00:00 9.3 9 Noroeste 16 Noroeste 0 848.6 -0.8 47
2019-04-12 17:00:00 9.6 7 Noroeste 13 Oeste 0 848.7 -0.7 44
2019-04-12 16:00:00 9.2 7 Noroeste 15 Noroeste 0 849.3 -0.1 47
2019-04-12 15:00:00 9 6 Noroeste 9 Noroeste 0 849.4 -0.2 45
2019-04-12 14:00:00 7.8 6 Noroeste 10 Norte 0 849.4 0.2 51
2019-04-12 13:00:00 6.8 6 Noroeste 8 Norte 0 849.4 0.4 52
2019-04-12 12:00:00 7.6 2 Norte 5 Noroeste 0 849.6 0.6 51
2019-04-12 11:00:00 6.6 3 Sudoeste 5 Sudoeste 0 849.2 0.3 55
2019-04-12 10:00:00 3.8 2 Sur 4 Sur 0 849 0.5 60
2019-04-12 09:00:00 0.2 0 Calma 6 Nordeste 0 849 0.2 67
2019-04-12 08:00:00 -0.9 2 Sur 5 Oeste 0 848.9 -0.1 65
2019-04-12 07:00:00 -2 0 Calma 4 Sudoeste 0 848.5 -0.8 68
2019-04-12 06:00:00 -2.1 0 Calma 4 Sudoeste 0 848.8 -0.7 70
2019-04-12 05:00:00 -1.8 0 Calma 4 Nordeste 0 849 -0.7 78
2019-04-12 04:00:00 -1 2 Sudeste 8 Sur 0 849.3 -0.6 79
2019-04-12 03:00:00 -0.6 5 Sur 10 Sudeste 0 849.5 -0.6 84
2019-04-12 02:00:00 -0.6 4 Sudeste 6 Sudeste 0 849.7 -0.5 85
2019-04-12 01:00:00 -0.3 3 Sudeste 6 Sur 0 849.9 -0.2 85
2019-04-12 00:00:00 0.4 5 Noroeste 9 Noroeste 0 850.1 0.2 87
2019-04-11 23:00:00 1 8 Noroeste 15 Noroeste 0 850.2 0.4 87
2019-04-11 22:00:00 1.5 12 Noroeste 17 Noroeste 0 850.1 0.3 91
2019-04-11 21:00:00 1.6 13 Noroeste 20 Noroeste 0 849.9 0.1 89
2019-04-11 20:00:00 2.3 9 Noroeste 17 Noroeste 0 849.8 0 84
2019-04-11 19:00:00 2.7 13 Noroeste 21 Noroeste 0 849.8 -0.1 83
2019-04-11 18:00:00 3.2 15 Norte 19 Noroeste 0 849.8 -0.2 80
2019-04-11 17:00:00 3.7 8 Noroeste 16 Norte 0 849.8 -0.3 76
2019-04-11 16:00:00 3.4 9 Norte 15 Noroeste 0 849.9 -0.1 77
2019-04-11 15:00:00 3.9 8 Noroeste 17 Noroeste 0 850 0.3 71
2019-04-11 14:00:00 2.1 13 Noroeste 19 Noroeste 0 850.1 0.6 79
2019-04-11 13:00:00 2.2 12 Noroeste 19 Noroeste 0 850 0.9 81
2019-04-11 12:00:00 2.7 8 Noroeste 17 Noroeste 0 849.7 0.9 72
2019-04-11 11:00:00 1.8 9 Noroeste 13 Noroeste 0 849.5 0.8 75
2019-04-11 10:00:00 0.3 8 Noroeste 12 Noroeste 0 849.1 0.5 78
2019-04-11 09:00:00 -0.4 6 Noroeste 12 Noroeste 0 848.8 0.1 77
2019-04-11 08:00:00 -2.3 5 Noroeste 12 Noroeste 0 848.7 0 83
2019-04-11 07:00:00 -2 8 Noroeste 15 Noroeste 0 848.6 0 86
2019-04-11 06:00:00 -1.9 15 Noroeste 21 Noroeste 0 848.7 -0.2 92
2019-04-11 05:00:00 -1.4 8 Noroeste 11 Noroeste 0 848.7 -0.3 89
2019-04-11 04:00:00 -0.8 5 Noroeste 13 Noroeste 0 848.6 -0.3 95
2019-04-11 03:00:00 -0.4 6 Noroeste 16 Noroeste 0 848.9 0.1 95
2019-04-11 02:00:00 -0.1 10 Noroeste 17 Noroeste 0.4 849 0.1 95
2019-04-11 01:00:00 0 11 Noroeste 21 Noroeste 0 848.9 0.5 95
2019-04-11 00:00:00 0.4 7 Noroeste 23 Noroeste 0 848.8 1.1 91
2019-04-10 23:00:00 0.5 14 Noroeste 30 Noroeste 0 848.9 1.5 91
2019-04-10 22:00:00 0.5 12 Noroeste 29 Norte 0.2 848.4 1.5 92
2019-04-10 21:00:00 0.5 17 Norte 29 Noroeste 0 847.7 1.1 94
2019-04-10 20:00:00 0.8 22 Noroeste 33 Noroeste 0.6 847.4 1.1 93
2019-04-10 19:00:00 0.9 22 Noroeste 40 Noroeste 0.6 846.9 0.9 94
2019-04-10 18:00:00 1.1 20 Noroeste 42 Oeste 0.6 846.6 1.3 94
2019-04-10 17:00:00 1 22 Noroeste 46 Noroeste 1.6 846.3 1.4 93
2019-04-10 16:00:00 1.5 25 Noroeste 54 Noroeste 2.2 846 1.5 93
2019-04-10 15:00:00 1 31 Noroeste 54 Noroeste 4 845.3 1.1 95
2019-04-10 14:00:00 1.1 28 Noroeste 54 Noroeste 5.8 844.9 1.2 95
2019-04-10 13:00:00 0.9 36 Noroeste 67 Noroeste 4.2 844.5 1.5 94
2019-04-10 12:00:00 0.8 33 Noroeste 49 Noroeste 0.2 844.2 1.6 93
2019-04-10 11:00:00 0.5 32 Noroeste 47 Noroeste 0 843.7 1.7 94
2019-04-10 10:00:00 0.3 24 Noroeste 44 Noroeste 0 843 1.3 95
2019-04-10 09:00:00 -0.3 21 Noroeste 34 Noroeste 0 842.6 1.1 95
2019-04-10 08:00:00 -0.5 12 Noroeste 32 Norte 0 842 0.5 95
2019-04-10 07:00:00 -0.9 10 Noroeste 21 Noroeste 0 841.7 0.1 94
2019-04-10 06:00:00 -0.8 8 Noroeste 17 Norte 0 841.5 -0.5 94
2019-04-10 05:00:00 -0.6 7 Norte 21 Noroeste 0 841.5 -0.5 94
2019-04-10 04:00:00 -0.4 14 Noroeste 26 Oeste 0.2 841.6 -0.4 93
2019-04-10 03:00:00 -0.2 9 Noroeste 22 Noroeste 0 842 0.3 93
2019-04-10 02:00:00 -0.3 13 Noroeste 30 Noroeste 0 842 0.4 91
2019-04-10 01:00:00 -0.1 16 Noroeste 31 Noroeste 0 842 0.6 90
2019-04-10 00:00:00 -0.2 15 Noroeste 27 Noroeste 0.2 841.7 0.8 93
2019-04-09 23:00:00 0.2 10 Noroeste 31 Noroeste 0.2 841.6 1 92
2019-04-09 22:00:00 0.3 15 Noroeste 42 Noroeste 0 841.4 1 90
2019-04-09 21:00:00 0.1 18 Noroeste 46 Noroeste 0 840.9 0.6 92
2019-04-09 20:00:00 0.5 10 Noroeste 19 Noroeste 0.6 840.6 0.2 92
2019-04-09 19:00:00 1.5 10 Noroeste 21 Oeste 0.8 840.4 -0.2 85
2019-04-09 18:00:00 2.7 11 Noroeste 32 Sudeste 0 840.3 0 76
2019-04-09 17:00:00 2.8 9 Sudeste 45 Norte 0.2 840.4 -0.2 77
2019-04-09 16:00:00 1.4 17 Norte 41 Noroeste 0.2 840.6 0.2 85
2019-04-09 15:00:00 3.8 7 Noroeste 20 Noroeste 0.6 840.3 0.2 69
2019-04-09 14:00:00 2.3 11 Noroeste 39 Noroeste 1.2 840.6 0.7 71
2019-04-09 13:00:00 2.6 13 Noroeste 39 Noroeste 1 840.4 0.7 70
2019-04-09 12:00:00 0.7 13 Oeste 33 Oeste 0 840.1 0.9 71
2019-04-09 11:00:00 0.5 14 Noroeste 22 Noroeste -- 839.9 1.2 83
2019-04-09 10:00:00 0 8 Sudeste 16 Sudeste -- 839.7 1 91
2019-04-09 09:00:00 -0.6 12 Sudeste 15 Sur -- 839.2 0.4 94
2019-04-09 08:00:00 -0.8 15 Sudeste 19 Sudeste -- 838.7 -0.2 94
2019-04-09 07:00:00 -0.5 12 Sudeste 22 Este -- 838.7 -0.6 94
2019-04-09 06:00:00 -0.4 13 Sudeste 23 Sudeste -- 838.8 -1 93
2019-04-09 05:00:00 -0.1 14 Sudeste 31 Sudeste -- 838.9 -0.9 93
2019-04-09 04:00:00 0.1 13 Sudeste 35 Sudeste -- 839.3 -0.8 90
2019-04-09 03:00:00 0.2 15 Sudeste 45 Sudeste -- 839.8 -0.7 90
2019-04-09 02:00:00 0.2 16 Sudeste 39 Sudeste -- 839.8 -0.8 91
2019-04-09 01:00:00 0.6 14 Sudeste 50 Sudeste -- 840.1 -0.2 87
2019-04-09 00:00:00 1.2 14 Sudeste 44 Sudeste -- 840.5 0.3 80
2019-04-08 23:00:00 1.8 17 Sudeste 53 Sudeste -- 840.6 0.1 76
2019-04-08 22:00:00 1.9 15 Sudeste 35 Sudeste -- 840.3 -0.4 79
2019-04-08 21:00:00 2.1 16 Sudeste 37 Sudeste -- 840.2 -0.7 77
2019-04-08 20:00:00 2.9 11 Sudeste 31 Sudeste -- 840.5 -0.6 74
2019-04-08 19:00:00 3.7 5 Este 54 Sudeste -- 840.7 -0.6 67
2019-04-08 18:00:00 3.2 17 Sudeste 39 Sur -- 840.9 -0.4 71
2019-04-08 17:00:00 3.8 15 Sudeste 35 Sudeste -- 841.1 -0.2 67
2019-04-08 16:00:00 4 12 Sudeste 35 Sudeste -- 841.3 -0.1 66
2019-04-08 15:00:00 3.5 18 Sudeste 41 Sudeste -- 841.3 0.2 68
2019-04-08 14:00:00 3.7 17 Sudeste 36 Sudeste -- 841.3 0.6 64
2019-04-08 13:00:00 3 9 Sudeste 26 Sur -- 841.4 0.8 72
2019-04-08 12:00:00 1.9 13 Sudeste 31 Sur -- 841.1 0.8 79
2019-04-08 11:00:00 1.8 9 Sudeste 17 Sudeste -- 840.7 0.8 76
2019-04-08 10:00:00 2.4 3 Nordeste 45 Noroeste -- 840.6 1.1 71
2019-04-08 09:00:00 0.4 26 Norte 44 Norte -- 840.3 1 81
2019-04-08 08:00:00 0.7 17 Noroeste 41 Noroeste -- 839.9 0.7 88
2019-04-08 07:00:00 0.8 11 Noroeste 29 Noroeste -- 839.5 0.4 90
2019-04-08 06:00:00 1.7 14 Noroeste 34 Oeste -- 839.3 0.3 85
2019-04-08 05:00:00 1.8 10 Noroeste 36 Oeste -- 839.2 0.4 85
2019-04-08 04:00:00 1.1 6 Este 15 Norte -- 839.1 0.1 93
2019-04-08 03:00:00 0.7 3 Sur 14 Sudeste -- 839 -0.2 95
2019-04-08 02:00:00 -0.2 8 Sudeste 14 Sudeste -- 838.8 -0.8 94
2019-04-08 01:00:00 -0.4 6 Sudeste 15 Este -- 839 -0.4 94
2019-04-08 00:00:00 -0.6 10 Sudeste 17 Sur -- 839.2 0 94
2019-04-07 23:00:00 -0.5 11 Sudeste 19 Sudeste -- 839.6 0.6 94
2019-04-07 22:00:00 -0.4 14 Sudeste 21 Sudeste -- 839.4 0.5 94
2019-04-07 21:00:00 -0.3 17 Sudeste 22 Sudeste -- 839.2 0.2 93
2019-04-07 20:00:00 -0.1 10 Sudeste 18 Sudeste -- 839 -0.1 93
2019-04-07 19:00:00 0 14 Sudeste 24 Sudeste -- 838.9 -0.1 93
2019-04-07 18:00:00 0.7 19 Sudeste 28 Sudeste -- 839 0 90
2019-04-07 17:00:00 0.9 18 Sudeste 34 Sudeste -- 839.1 0.2 87
2019-04-07 16:00:00 1.3 21 Sudeste 34 Sudeste -- 839 0 79
2019-04-07 15:00:00 2.1 14 Sudeste 30 Sudeste -- 839 0.3 74
2019-04-07 14:00:00 1.7 17 Sudeste 28 Sudeste -- 838.9 0.5 73
2019-04-07 13:00:00 0.6 17 Sudeste 27 Sudeste -- 839 0.9 78
2019-04-07 12:00:00 1.7 13 Sudeste 21 Sudeste -- 838.7 1.1 72
2019-04-07 11:00:00 0.1 9 Noroeste 15 Noroeste -- 838.4 1.3 72
2019-04-07 10:00:00 -0.3 3 Sur 20 Noroeste -- 838.1 1.5 80
2019-04-07 09:00:00 -2.5 13 Noroeste 15 Noroeste -- 837.6 1.6 89
2019-04-07 08:00:00 -3.7 13 Noroeste 23 Noroeste -- 837.1 1.5 89
2019-04-07 07:00:00 -5.1 11 Noroeste 19 Noroeste -- 836.6 1.5 88
2019-04-07 06:00:00 -4 11 Noroeste 19 Noroeste -- 836 1 90
2019-04-07 05:00:00 -4 9 Oeste 21 Noroeste -- 835.6 1.1 88
2019-04-07 04:00:00 -2.5 12 Noroeste 19 Norte -- 835.1 1 95
2019-04-07 03:00:00 -2.5 9 Noroeste 18 Norte -- 835 1.1 94
2019-04-07 02:00:00 -2.5 14 Noroeste 25 Noroeste -- 834.5 0.9 95
2019-04-07 01:00:00 -2.3 15 Noroeste 23 Noroeste -- 834.1 0.9 95
2019-04-07 00:00:00 -2.2 13 Noroeste 30 Noroeste -- 833.9 1 93
2019-04-06 23:00:00 -2.3 16 Noroeste 33 Norte -- 833.6 1.1 93
2019-04-06 22:00:00 -2.9 14 Noroeste 35 Noroeste -- 833.2 1.8 90
2019-04-06 21:00:00 -2.5 10 Noroeste 30 Noroeste -- 832.9 2.1 90
2019-04-06 20:00:00 -1.9 14 Noroeste 44 Noroeste -- 832.5 2.5 94
2019-04-06 19:00:00 -1.6 23 Noroeste 42 Noroeste -- 831.4 1.7 94
2019-04-06 18:00:00 -1.3 15 Noroeste 31 Norte -- 830.8 1.4 93
2019-04-06 17:00:00 -0.1 14 Noroeste 34 Noroeste -- 830 1.2 84
2019-04-06 16:00:00 0.1 12 Noroeste 30 Oeste -- 829.7 1.1 88
2019-04-06 15:00:00 1.1 14 Noroeste 30 Noroeste -- 829.4 1.4 74
2019-04-06 14:00:00 1.8 3 Este 24 Sudeste -- 828.8 1.2 78
2019-04-06 13:00:00 0.2 11 Sudeste 26 Sudeste -- 828.6 1.5 82
2019-04-06 12:00:00 -0.4 14 Sudeste 36 Sudeste -- 828 1 83
2019-04-06 11:00:00 -1.3 15 Sudeste 27 Sudeste -- 827.6 0.6 86
2019-04-06 10:00:00 -1.8 16 Sudeste 28 Este -- 827.1 0.1 89
2019-04-06 09:00:00 -2.5 18 Sudeste 42 Sur -- 827 -0.5 91
2019-04-06 08:00:00 -2.3 18 Sudeste 35 Sudeste -- 827 -1.1 92
2019-04-06 07:00:00 -2.4 21 Sudeste 33 Sudeste -- 827 -1.5 91
2019-04-06 06:00:00 -2.4 16 Sudeste 28 Sur -- 827.5 -1.5 93
2019-04-06 05:00:00 -2.2 16 Sudeste 44 Sudeste -- 828.1 -1.3 90
2019-04-06 04:00:00 -2.3 13 Sudeste 28 Sudeste -- 828.5 -1.4 93
2019-04-06 03:00:00 -2.3 14 Sudeste 33 Sudeste -- 829 -0.8 92
2019-04-06 02:00:00 -1.8 14 Este 28 Sudeste -- 829.4 -0.4 90
2019-04-06 01:00:00 -1.9 9 Sudeste 23 Sudeste -- 829.9 0.4 93
2019-04-06 00:00:00 -1.7 9 Sudeste 18 Noroeste -- 829.8 0.8 86
2019-04-05 23:00:00 -1.9 7 Oeste 24 Oeste -- 829.8 1.1 83
2019-04-05 22:00:00 -1.5 8 Noroeste 21 Noroeste -- 829.5 0.8 89
2019-04-05 21:00:00 -1.4 8 Oeste 32 Noroeste -- 829 0.9 80
2019-04-05 20:00:00 -1.3 9 Noroeste 28 Noroeste -- 828.7 0.9 89
2019-04-05 19:00:00 -0.3 8 Noroeste 18 Norte -- 828.7 0.9 88
2019-04-05 18:00:00 0.4 9 Sudeste 18 Sudeste -- 828.1 0.5 80
2019-04-05 17:00:00 0.1 12 Norte 31 Sur -- 827.8 0.2 75
2019-04-05 16:00:00 1 13 Sudeste 45 Sudeste -- 827.8 0.2 69
2019-04-05 15:00:00 0.9 10 Este 43 Sudeste -- 827.6 0 67
2019-04-05 14:00:00 0 17 Sudeste 44 Sur -- 827.6 0.4 71
2019-04-05 13:00:00 -0.7 15 Sudeste 47 Sudeste -- 827.6 1 73
2019-04-05 12:00:00 -1.4 14 Sudeste 42 Sudeste -- 827.6 1.5 78
2019-04-05 11:00:00 -1.2 14 Sudeste 40 Sudeste -- 827.2 1.3 79
2019-04-05 10:00:00 -2.3 17 Sudeste 41 Sudeste -- 826.6 0.6 85
2019-04-05 09:00:00 -2.8 15 Sudeste 33 Sudeste -- 826.1 0.1 92
2019-04-05 08:00:00 -3 9 Sudeste 27 Sudeste -- 825.9 -0.1 92
2019-04-05 07:00:00 -2.7 13 Sudeste 19 Sudeste -- 826 -0.2 94
2019-04-05 06:00:00 -2.3 15 Sudeste 24 Sudeste -- 826 -0.6 95
2019-04-05 05:00:00 -2 11 Sudeste 32 Sudeste -- 826 -0.8 94
2019-04-05 04:00:00 -1.6 12 Sudeste 19 Sudeste -- 826.2 -0.6 95
2019-04-05 03:00:00 -1.6 6 Sudeste 14 Sudeste -- 826.6 -0.6 95
2019-04-05 02:00:00 -1.8 9 Sudeste 25 Sudeste -- 826.8 -1 95
2019-04-05 01:00:00 -1.6 17 Sudeste 24 Sudeste -- 826.8 -1.4 95
2019-04-05 00:00:00 -1.4 15 Sudeste 24 Sudeste -- 827.2 -1.3 95
2019-04-04 23:00:00 -1.3 16 Sudeste 32 Sudeste -- 827.8 -1.1 94
2019-04-04 22:00:00 -1.3 17 Sudeste 23 Sudeste -- 828.2 -1.2 94
2019-04-04 21:00:00 -1.4 17 Sudeste 26 Sudeste -- 828.5 -1.4 94
2019-04-04 20:00:00 -1.1 11 Sudeste 25 Sudeste -- 828.9 -1.4 93
2019-04-04 19:00:00 -0.8 17 Sudeste 36 Sudeste -- 829.4 -1.5 92
2019-04-04 18:00:00 -0.4 18 Sudeste 33 Sudeste -- 829.9 -1.5 90
2019-04-04 17:00:00 -0.2 16 Sudeste 36 Sudeste -- 830.3 -1.6 88
2019-04-04 16:00:00 -0.7 12 Sudeste 36 Sur -- 830.9 -1.7 90
2019-04-04 15:00:00 -0.3 21 Sur 40 Sur -- 831.4 -1.7 82
2019-04-04 14:00:00 0.3 19 Sudeste 41 Sudeste -- 831.9 -1.1 78
2019-04-04 13:00:00 0.3 17 Sudeste 41 Sur -- 832.6 -0.9 80
2019-04-04 12:00:00 -1.1 10 Este 24 Oeste -- 833.1 -0.3 87
2019-04-04 11:00:00 -2.2 9 Noroeste 46 Norte -- 833 -0.2 90
2019-04-04 10:00:00 -3.4 11 Noroeste 21 Noroeste -- 833.5 0.1 93
2019-04-04 09:00:00 -4.2 11 Norte 17 Noroeste -- 833.4 -0.4 94
2019-04-04 08:00:00 -4.6 10 Noroeste 20 Noroeste -- 833.2 -0.9 94
2019-04-04 07:00:00 -4.7 17 Noroeste 36 Noroeste -- 833.4 -1.2 94
2019-04-04 06:00:00 -4.7 23 Noroeste 34 Noroeste -- 833.8 -1.6 94
2019-04-04 05:00:00 -4.3 19 Noroeste 37 Noroeste -- 834.1 -2 94
2019-04-04 04:00:00 -4.3 16 Noroeste 39 Noroeste -- 834.6 -1.9 94
2019-04-04 03:00:00 -4.5 10 Noroeste 35 Norte -- 835.4 -1.6 94
2019-04-04 02:00:00 -4.5 19 Noroeste 36 Noroeste -- 836.1 -1.2 94
2019-04-04 01:00:00 -4.4 21 Noroeste 34 Noroeste -- 836.5 -0.5 93
2019-04-04 00:00:00 -4.5 14 Noroeste 48 Norte -- 837 0.1 94
2019-04-03 23:00:00 -4.3 30 Noroeste 56 Noroeste -- 837.3 0 94
2019-04-03 22:00:00 -3.9 30 Noroeste 47 Noroeste -- 837 0 94
2019-04-03 21:00:00 -4.3 32 Noroeste 54 Noroeste -- 836.9 -0.5 94
2019-04-03 20:00:00 -4.1 18 Noroeste 48 Noroeste -- 837.3 -0.2 94
2019-04-03 19:00:00 -3.3 25 Noroeste 45 Noroeste -- 837 -1 93
2019-04-03 18:00:00 -3.1 30 Noroeste 50 Noroeste -- 837.4 -0.8 93
2019-04-03 17:00:00 -2.2 27 Noroeste 45 Noroeste -- 837.5 -0.7 90
2019-04-03 16:00:00 -2.8 26 Noroeste 52 Noroeste -- 838 -0.7 93
2019-04-03 15:00:00 -2.9 26 Noroeste 56 Noroeste -- 838.2 -0.6 94
2019-04-03 14:00:00 -2.9 35 Noroeste 52 Noroeste -- 838.2 -0.7 93
2019-04-03 13:00:00 -2.5 28 Noroeste 63 Noroeste -- 838.7 -0.3 94
2019-04-03 12:00:00 -2.9 35 Noroeste 55 Noroeste -- 838.8 -0.3 95
2019-04-03 11:00:00 -3 33 Noroeste 54 Noroeste -- 838.9 -0.5 95
2019-04-03 10:00:00 -3.1 30 Noroeste 59 Noroeste -- 839 -0.8 95
2019-04-03 09:00:00 -2.7 36 Noroeste 52 Noroeste -- 839.1 -1.1 95
2019-04-03 08:00:00 -2.5 23 Noroeste 40 Noroeste -- 839.4 -1.7 95
2019-04-03 07:00:00 -2.5 25 Noroeste 44 Noroeste -- 839.8 -1.9 95
2019-04-03 06:00:00 -2.2 26 Noroeste 42 Noroeste -- 840.2 -2.3 95
2019-04-03 05:00:00 -1.9 22 Noroeste 33 Noroeste -- 841.1 -1.9 95
2019-04-03 04:00:00 -1.8 24 Noroeste 37 Noroeste -- 841.7 -1.9 96
2019-04-03 03:00:00 -1.4 17 Noroeste 35 Noroeste -- 842.5 -1.4 96
2019-04-03 02:00:00 -0.9 17 Noroeste 33 Noroeste -- 843 -1.4 96
2019-04-03 01:00:00 -0.4 22 Noroeste 31 Noroeste 0 843.6 -0.8 96
2019-04-03 00:00:00 0.2 12 Noroeste 28 Noroeste 0 843.9 -0.4 95
2019-04-02 23:00:00 0.6 16 Noroeste 30 Noroeste 0 844.4 -0.4 95
2019-04-02 22:00:00 1.1 15 Noroeste 24 Noroeste 0 844.4 -0.1 95
2019-04-02 21:00:00 1.6 12 Noroeste 32 Noroeste 0 844.3 -0.6 95
2019-04-02 20:00:00 2.1 17 Norte 32 Norte 0 844.8 -0.4 95
2019-04-02 19:00:00 3.5 16 Noroeste 31 Norte 0 844.5 -1 88
2019-04-02 18:00:00 5.1 18 Noroeste 32 Noroeste 0 844.9 -1.1 74
2019-04-02 17:00:00 5.4 20 Noroeste 37 Norte 0 845.2 -1.1 77
2019-04-02 16:00:00 6.3 15 Noroeste 28 Noroeste 0 845.5 -1 76
2019-04-02 15:00:00 7.6 14 Noroeste 24 Norte 0 846 -0.6 71
2019-04-02 14:00:00 6.9 14 Noroeste 23 Noroeste 0 846.3 -0.3 73
2019-04-02 13:00:00 6.1 14 Noroeste 24 Noroeste 0 846.5 0.1 76
2019-04-02 12:00:00 4.4 17 Noroeste 23 Noroeste 0 846.6 0.4 83
2019-04-02 11:00:00 2.7 17 Noroeste 24 Noroeste 0 846.6 0.6 87
2019-04-02 10:00:00 1.7 17 Noroeste 22 Noroeste 0 846.4 0.7 78
2019-04-02 09:00:00 0.9 9 Noroeste 14 Noroeste 0 846.2 0.5 74
2019-04-02 08:00:00 0.8 10 Noroeste 15 Noroeste 0 846 0.1 68
2019-04-02 07:00:00 1.1 10 Noroeste 14 Noroeste 0 845.7 -0.3 61
2019-04-02 06:00:00 0.7 3 Noroeste 11 Nordeste 0 845.7 -0.5 61
2019-04-02 05:00:00 2.1 8 Noroeste 12 Noroeste 0 845.9 -0.7 63
2019-04-02 04:00:00 1.2 3 Norte 8 Sudeste 0 846 -0.5 63
2019-04-02 03:00:00 2.9 5 Sur 14 Norte 0 846.2 -0.2 59
2019-04-02 02:00:00 3.7 5 Nordeste 15 Este 0 846.6 0.2 61
2019-04-02 01:00:00 3.3 6 Este 16 Norte 0 846.5 0.6 63
2019-04-02 00:00:00 2.4 4 Este 14 Norte 0 846.4 1.2 66
2019-04-01 23:00:00 2.4 9 Noroeste 14 Noroeste 0 846.4 1.8 77
2019-04-01 22:00:00 3.1 10 Noroeste 17 Noroeste 0 845.9 1.6 78
2019-04-01 21:00:00 4.5 15 Noroeste 28 Noroeste 0 845.2 1.1 75
2019-04-01 20:00:00 6.4 19 Noroeste 35 Noroeste 0 844.6 0.4 67
2019-04-01 19:00:00 7.8 20 Oeste 34 Oeste 0 844.3 -0.1 56
2019-04-01 18:00:00 9 21 Noroeste 39 Oeste 0 844.1 -0.6 52
2019-04-01 17:00:00 9.6 19 Noroeste 36 Noroeste 0 844.2 -0.7 52
2019-04-01 16:00:00 9.6 18 Noroeste 37 Noroeste 0 844.4 -0.7 48
2019-04-01 15:00:00 9.4 17 Noroeste 33 Noroeste 0 844.7 -0.3 45
2019-04-01 14:00:00 9.3 13 Noroeste 27 Noroeste 0 844.9 0.1 43
2019-04-01 13:00:00 8.6 11 Noroeste 22 Noroeste 0 845.1 0.6 49
2019-04-01 12:00:00 8.2 11 Noroeste 18 Noroeste 0 845 0.8 60
2019-04-01 11:00:00 7 10 Noroeste 15 Norte 0 844.8 0.9 60
2019-04-01 10:00:00 5.6 6 Norte 10 Norte 0 844.5 0.6 65
2019-04-01 09:00:00 1.8 4 Noroeste 9 Noroeste 0 844.2 0.4 80
2019-04-01 08:00:00 1.3 0 Calma 11 Sur 0 843.9 -0.3 76
2019-04-01 07:00:00 2.3 6 Sur 12 Sur 0 843.9 -0.5 75
2019-04-01 06:00:00 2.8 6 Sur 12 Sur 0 843.8 -0.8 74
2019-04-01 05:00:00 3.3 6 Sur 13 Sur 0 844.2 -0.3 73
2019-04-01 04:00:00 3.8 9 Sudeste 14 Sudeste 0 844.4 -0.3 72
2019-04-01 03:00:00 4.2 6 Sudeste 10 Sur 0 844.6 -0.1 72
2019-04-01 02:00:00 4.1 3 Norte 7 Noroeste 0 844.5 -0.3 67
2019-04-01 01:00:00 4.8 3 Noroeste 11 Noroeste 0 844.7 0.2 64
2019-04-01 00:00:00 5 0 Calma 7 Sudeste 0 844.7 0.7 69
2019-03-31 23:00:00 5.3 4 Sudeste 8 Sur 0 844.8 0.8 65
2019-03-31 22:00:00 4.5 3 Sudeste 15 Sur 0 844.5 0.4 70
2019-03-31 21:00:00 6 5 Sudeste 22 Sudeste 0 844 0.1 63
2019-03-31 20:00:00 6.7 5 Sudeste 15 Noroeste 0 844 0.2 67
2019-03-31 19:00:00 6.4 11 Noroeste 28 Este 0.2 844.1 -0.1 70
2019-03-31 18:00:00 8.5 9 Nordeste 25 Este 0 843.9 -0.9 56
2019-03-31 17:00:00 11 7 Este 18 Sudeste 0 843.8 -1.3 34
2019-03-31 16:00:00 10.2 15 Sudeste 32 Sudeste 0 844.2 -1.2 35
2019-03-31 15:00:00 10.7 15 Sudeste 33 Sudeste 0 844.8 -0.9 33
2019-03-31 14:00:00 10.7 18 Sudeste 29 Sudeste 0 845.1 -0.6 36
2019-03-31 13:00:00 10.8 9 Sur 23 Sudeste 0 845.4 -0.2 41
2019-03-31 12:00:00 9.6 13 Sudeste 27 Sudeste 0 845.7 0.2 48
2019-03-31 11:00:00 8 15 Sudeste 22 Sudeste 0 845.7 0.4 51
2019-03-31 10:00:00 5.7 10 Sudeste 16 Sudeste 0 845.6 0.1 63
2019-03-31 09:00:00 2.7 6 Sudeste 13 Sur 0 845.5 -0.3 70
2019-03-31 08:00:00 3.2 10 Sur 15 Sur 0 845.3 -1 66
2019-03-31 07:00:00 3.1 9 Sur 14 Sur 0 845.5 -1.3 68
2019-03-31 06:00:00 3.4 11 Sudeste 15 Sur 0 845.8 -1.4 69
2019-03-31 05:00:00 4.1 7 Sur 11 Sur 0 846.3 -1.4 69
2019-03-31 03:00:00 4.2 5 Sur 9 Sur 0 847.2 -0.9 71
2019-03-31 01:00:00 4.3 5 Sudeste 9 Sur 0 847.7 -0.5 75
2019-03-31 00:00:00 4.7 5 Sur 9 Sudoeste 0 848 -0.1 71
2019-03-30 23:00:00 4 4 Sudeste 10 Sudeste 0 848.1 0.4 76
2019-03-30 22:00:00 4 6 Sudeste 12 Sur 0 848.2 0.7 82
2019-03-30 21:00:00 4.1 6 Sudeste 12 Sur 0 848.1 0.3 80
2019-03-30 20:00:00 5.2 6 Sur 13 Sudeste 0 847.7 -0.1 72
2019-03-30 19:00:00 6.4 6 Sudeste 14 Sudeste 0 847.5 -0.4 71
2019-03-30 18:00:00 7.4 0 Calma 12 Sudoeste 0.4 847.8 -0.3 65
2019-03-30 17:00:00 6.4 9 Nordeste 28 Sudeste 0.4 847.8 -0.7 74
2019-03-30 16:00:00 8.2 15 Sudeste 26 Sudeste 0 847.9 -0.9 61
2019-03-30 15:00:00 9.5 11 Noroeste 26 Noroeste 0 848.1 -1.2 52
2019-03-30 14:00:00 9.8 4 Noroeste 15 Noroeste 0 848.5 -1.1 46
2019-03-30 13:00:00 8.4 12 Sudeste 17 Sudeste 0 848.8 -0.7 56
2019-03-30 12:00:00 8.4 6 Sudeste 15 Sudeste 0 849.3 0 63
2019-03-30 11:00:00 6.1 12 Sudeste 25 Sudeste 0 849.6 0.6 71
2019-03-30 10:00:00 5.8 17 Sudeste 25 Sudeste 0 849.5 0.6 69
2019-03-30 09:00:00 4.5 7 Sudeste 10 Sudeste 0 849.3 0.4 71
2019-03-30 08:00:00 3.5 6 Sudeste 8 Sur 0 849 -0.1 74
2019-03-30 07:00:00 3.2 2 Sur 8 Sur 0 848.9 -0.3 74
2019-03-30 06:00:00 2.8 0 Calma 5 Sudeste 0 848.9 -0.5 76
2019-03-30 05:00:00 3.3 2 Sudeste 5 Nordeste 0 849.1 -0.5 73
2019-03-30 04:00:00 2.6 0 Calma 4 Noroeste 0 849.2 -0.8 74
2019-03-30 03:00:00 2.8 0 Calma 12 Oeste 0 849.4 -0.8 72
2019-03-30 02:00:00 3.9 7 Noroeste 10 Noroeste 0 849.6 -0.9 71
2019-03-30 01:00:00 3.8 0 Calma 13 Noroeste 0 850 -0.5 70
2019-03-30 00:00:00 4.5 9 Noroeste 14 Noroeste 0 850.2 -0.1 69
2019-03-29 23:00:00 5 7 Noroeste 12 Noroeste 0 850.5 0.4 68
2019-03-29 22:00:00 5.4 4 Noroeste 12 Norte 0 850.5 0.7 71
2019-03-29 21:00:00 5.2 7 Noroeste 13 Oeste 0 850.3 0.6 74
2019-03-29 20:00:00 6.7 14 Noroeste 29 Noroeste 0 850.1 0.4 76
2019-03-29 19:00:00 7.9 18 Noroeste 29 Noroeste 0 849.8 -0.2 70
2019-03-29 18:00:00 9 18 Noroeste 26 Noroeste 0 849.7 -0.8 66
2019-03-29 17:00:00 10.9 18 Noroeste 32 Noroeste 0 849.7 -1.1 54
2019-03-29 16:00:00 12.4 11 Noroeste 31 Sur 0 850 -1.3 41
2019-03-29 15:00:00 12.9 11 Noroeste 36 Sudoeste 0 850.5 -1.1 28
2019-03-29 14:00:00 13.6 12 Sudeste 28 Sur 0 850.8 -1.2 25
2019-03-29 13:00:00 13.2 5 Oeste 20 Sudeste 0 851.3 -0.8 30
2019-03-29 12:00:00 12.2 7 Este 20 Sudeste 0 851.6 -0.7 30
2019-03-29 11:00:00 10.3 11 Sudeste 20 Sur 0 852 -0.4 34
2019-03-29 10:00:00 8.5 12 Sudeste 22 Sudeste 0 852.1 -0.4 39
2019-03-29 09:00:00 6.8 11 Sudeste 21 Sur 0 852.3 -0.3 44
2019-03-29 08:00:00 3.1 10 Sudeste 15 Sur 0 852.4 -0.4 52
2019-03-29 07:00:00 3.4 9 Sur 14 Sur 0 852.5 -0.5 50
2019-03-29 06:00:00 3.8 8 Sur 13 Sudeste 0 852.6 -0.9 48
2019-03-29 05:00:00 4.1 8 Sur 13 Sudeste 0 852.8 -1 49
2019-03-29 04:00:00 3.9 9 Sur 16 Sur 0 853 -1.1 56
2019-03-29 03:00:00 3.9 10 Sur 14 Sur 0 853.5 -0.9 62
2019-03-29 02:00:00 4.4 5 Sudeste 12 Sudeste 0 853.8 -1 57
2019-03-29 01:00:00 4 4 Sur 10 Sur 0 854.1 -0.8 58
2019-03-29 00:00:00 4.1 3 Norte 13 Sur 0 854.4 -0.3 57
2019-03-28 23:00:00 6 5 Sudeste 13 Sur 0 854.8 0.4 49
2019-03-28 22:00:00 6.1 6 Sur 12 Sudeste 0 854.9 0.6 54
2019-03-28 21:00:00 5.6 2 Noroeste 11 Noroeste 0 854.7 0.4 65
2019-03-28 20:00:00 5.4 9 Noroeste 14 Noroeste 0 854.4 0 73
2019-03-28 19:00:00 7 12 Noroeste 17 Noroeste 0 854.3 -0.4 74
2019-03-28 18:00:00 9.6 15 Noroeste 24 Noroeste 0 854.3 -0.8 66
2019-03-28 17:00:00 10.7 19 Noroeste 26 Noroeste 0 854.4 -1.2 59
2019-03-28 16:00:00 11.2 20 Noroeste 29 Noroeste 0 854.7 -1.2 58
2019-03-28 15:00:00 11.3 18 Noroeste 27 Noroeste 0 855.1 -1 58
2019-03-28 14:00:00 11.1 18 Noroeste 26 Noroeste 0 855.6 -0.8 53
2019-03-28 13:00:00 11 15 Noroeste 22 Noroeste -- 855.9 -0.6 49
2019-03-28 12:00:00 13.8 8 Sudeste 22 Nordeste -- 856.1 -0.3 23
2019-03-28 11:00:00 12.3 10 Nordeste 27 Sudeste 0 856.4 0.2 25
2019-03-28 10:00:00 12.3 11 Este 30 Sudeste 0 856.5 0.7 30
2019-03-28 09:00:00 10.8 12 Sudeste 24 Sudeste 0 856.4 0.6 32
2019-03-28 08:00:00 5.2 5 Este 14 Sudeste 0 856.2 0.5 40
2019-03-28 07:00:00 5.8 6 Sudeste 27 Sudeste 0 855.8 0 33
2019-03-28 06:00:00 5.4 7 Sudeste 23 Sudeste 0 855.8 -0.3 34
2019-03-28 05:00:00 6 7 Sudeste 18 Sudeste 0 855.7 -0.6 32
2019-03-28 04:00:00 6.4 13 Sudeste 21 Sudeste 0 855.8 -0.7 34
2019-03-28 03:00:00 6.3 11 Sudeste 20 Sudeste 0 856.1 -0.2 34
2019-03-28 02:00:00 4.4 4 Sur 10 Oeste 0 856.3 0 40
2019-03-28 01:00:00 3.5 3 Noroeste 8 Sudeste 0 856.5 0.3 40
2019-03-28 00:00:00 4 2 Este 8 Sudeste 0 856.3 0.3 37
2019-03-27 23:00:00 5.2 3 Este 10 Este 0 856.3 0.9 33
2019-03-27 22:00:00 4.8 7 Este 13 Este 0 856.2 1.2 33
2019-03-27 21:00:00 5.7 5 Sudeste 12 Sudeste 0 856 1.3 33
2019-03-27 20:00:00 4.7 2 Norte 16 Noroeste 0 855.4 0.7 52
2019-03-27 19:00:00 5.9 13 Noroeste 19 Noroeste 0 855 0.3 74
2019-03-27 18:00:00 9.6 14 Noroeste 25 Noroeste 0 854.7 -0.2 59
2019-03-27 17:00:00 10.5 18 Noroeste 26 Noroeste 0 854.7 -0.1 58
2019-03-27 16:00:00 10.6 19 Noroeste 28 Noroeste 0 854.7 -0.2 56
2019-03-27 15:00:00 11.1 20 Noroeste 27 Noroeste 0 854.9 -0.1 55
2019-03-27 14:00:00 11.1 18 Noroeste 29 Noroeste 0 854.8 0 51
2019-03-27 13:00:00 13 11 Noroeste 36 Sudeste 0 854.9 0.6 31
2019-03-27 12:00:00 14.8 16 Sur 42 Sudeste 0 855 1 14
2019-03-27 11:00:00 13.4 21 Sur 40 Sur 0 854.8 1 18
2019-03-27 10:00:00 11.5 25 Sur 42 Sur 0 854.3 1 18
2019-03-27 09:00:00 9.7 21 Sur 35 Sur 0 854 1.1 16
2019-03-27 08:00:00 6.2 19 Sur 29 Sur 0 853.8 1.2 18
2019-03-27 07:00:00 4.5 11 Sudeste 21 Sur 0 853.3 0.6 21
2019-03-27 06:00:00 3.7 11 Sudeste 21 Sur 0 852.9 0.1 20
2019-03-27 05:00:00 4.7 10 Sudeste 17 Sudeste 0 852.6 -0.2 16
2019-03-27 04:00:00 4.5 11 Sudeste 26 Sur 0 852.7 -0.3 16
2019-03-27 03:00:00 5.4 17 Sudeste 33 Sur 0 852.8 -0.2 14
2019-03-27 02:00:00 5.3 20 Sudeste 36 Sudeste 0 852.8 0 17
2019-03-27 01:00:00 4.1 18 Sudeste 31 Sudeste 0 853 0.5 23
2019-03-27 00:00:00 4 20 Sudeste 28 Sudeste 0 853 0.8 29
2019-03-26 23:00:00 4.8 19 Sudeste 36 Sudeste 0 852.8 1.2 37
2019-03-26 22:00:00 4.7 15 Sur 26 Sur 0 852.5 1.1 47
2019-03-26 21:00:00 5.7 13 Sur 20 Sur 0 852.2 1.1 40
2019-03-26 20:00:00 4.4 5 Sudeste 15 Norte 0 851.6 0.7 48
2019-03-26 19:00:00 4.6 12 Noroeste 18 Noroeste 0 851.4 0.5 78
2019-03-26 18:00:00 7.9 15 Noroeste 31 Noroeste 0 851.1 0 68
2019-03-26 17:00:00 10 13 Noroeste 29 Sudeste 0 850.9 -0.3 59
2019-03-26 16:00:00 11.7 15 Noroeste 37 Sur 0 850.9 -0.4 51
2019-03-26 15:00:00 15.3 16 Sur 35 Sudeste 0 851.1 -0.4 11
2019-03-26 14:00:00 15 20 Sudeste 50 Sudeste 0 851.2 0 14
2019-03-26 13:00:00 14 25 Sudeste 60 Sudeste 0 851.3 0.3 13
2019-03-26 12:00:00 12.5 28 Sudeste 60 Sudeste 0 851.5 0.6 11
2019-03-26 11:00:00 11.4 28 Sur 50 Sur 0 851.2 0.2 15
2019-03-26 10:00:00 10.1 24 Sur 39 Sur 0 851 0.3 16
2019-03-26 09:00:00 6.8 17 Sur 30 Sur 0 850.9 0.1 22
2019-03-26 08:00:00 2.2 7 Sudeste 15 Sudeste 0 851 0.1 41
2019-03-26 07:00:00 1.5 11 Sudeste 22 Sur 0 850.7 -0.3 45
2019-03-26 06:00:00 -2.1 9 Sudeste 13 Sudeste 0 850.8 -0.9 70
2019-03-26 05:00:00 -1.1 8 Sudeste 16 Sudeste 0 850.9 -1.2 62
2019-03-26 04:00:00 -0.4 8 Sudeste 13 Sudeste 0 851 -1.4 54
2019-03-26 03:00:00 -0.6 4 Norte 6 Noroeste 0 851.7 -1.1 57
2019-03-26 02:00:00 0.1 2 Noroeste 16 Sur 0 852.1 -0.7 52
2019-03-26 01:00:00 2.6 5 Este 17 Nordeste 0 852.4 -0.5 39
2019-03-26 00:00:00 1.6 8 Este 17 Nordeste 0 852.8 0.2 47
2019-03-25 23:00:00 2.5 5 Sudoeste 16 Sudoeste 0 852.8 0.3 50
2019-03-25 22:00:00 4 6 Noroeste 34 Nordeste 0 852.9 0.3 43
2019-03-25 21:00:00 4.2 15 Nordeste 28 Este 0 852.6 0.3 47
2019-03-25 20:00:00 3.6 11 Nordeste 18 Nordeste 0 852.5 0.1 56
2019-03-25 19:00:00 5 6 Oeste 22 Oeste 0 852.6 -0.1 67
2019-03-25 18:00:00 7.3 18 Noroeste 26 Noroeste 0 852.3 -0.6 75
2019-03-25 17:00:00 9.3 17 Noroeste 25 Noroeste 0 852.4 -1.2 66
2019-03-25 16:00:00 10.1 14 Noroeste 27 Noroeste 0 852.7 -1.1 66
2019-03-25 15:00:00 10.6 15 Noroeste 24 Noroeste 0 852.9 -1.2 64
2019-03-25 14:00:00 8.8 18 Noroeste 25 Noroeste 0 853.6 -0.4 70
2019-03-25 13:00:00 8.8 17 Noroeste 28 Noroeste 0 853.8 -0.3 62
2019-03-25 12:00:00 6.3 18 Noroeste 28 Nordeste 0 854.1 0.3 75
2019-03-25 11:00:00 4.9 15 Norte 23 Norte 0 854 0.3 75
2019-03-25 10:00:00 5.2 4 Noroeste 13 Norte 0 854.1 0.6 61
2019-03-25 09:00:00 5.3 8 Sudeste 12 Sudeste 0 853.8 0.3 53
2019-03-25 08:00:00 1.2 0 Calma 5 Sudeste 0 853.7 -0.1 63
2019-03-25 07:00:00 1.1 0 Calma 3 Norte 0 853.5 -0.5 64
2019-03-25 06:00:00 1.4 0 Calma 6 Sudoeste 0 853.5 -0.7 63
2019-03-25 05:00:00 2.9 4 Sur 7 Sudeste 0 853.8 -0.6 62
2019-03-25 04:00:00 2.2 0 Calma 7 Sudeste 0 854 -0.8 61
2019-03-25 03:00:00 2.8 2 Sudeste 10 Sudeste 0 854.2 -0.7 60
2019-03-25 02:00:00 4.1 6 Sur 11 Sur 0 854.4 -0.9 58
2019-03-25 01:00:00 3.7 5 Sudeste 10 Sur 0 854.8 -0.5 66
2019-03-25 00:00:00 3.4 6 Sudeste 24 Este 0 854.9 -0.1 76
2019-03-24 23:00:00 5.9 7 Este 18 Nordeste 0 855.3 0.5 57
2019-03-24 22:00:00 4.6 5 Nordeste 20 Norte 0 855.3 0.9 63
2019-03-24 21:00:00 2.8 14 Noroeste 22 Oeste 0 855 1 89
2019-03-24 20:00:00 3.9 12 Noroeste 22 Noroeste 0 854.8 0.7 86
2019-03-24 19:00:00 6.8 17 Noroeste 25 Norte 0 854.4 0.2 80
2019-03-24 18:00:00 10.2 17 Noroeste 31 Oeste 0 854 -0.6 62
2019-03-24 17:00:00 11.4 18 Noroeste 29 Noroeste 0 854.1 -0.9 60
2019-03-24 16:00:00 13.1 16 Oeste 33 Oeste 0 854.2 -1.2 51
2019-03-24 15:00:00 13.1 15 Noroeste 29 Oeste 0 854.6 -0.9 53
2019-03-24 14:00:00 12.9 17 Noroeste 32 Noroeste 0 855 -0.7 56
2019-03-24 13:00:00 12.3 14 Noroeste 24 Noroeste 0 855.4 -0.1 54
2019-03-24 12:00:00 14.1 6 Noroeste 19 Sudeste 0 855.5 0.2 43
2019-03-24 11:00:00 13.3 10 Sudeste 17 Sudeste 0 855.7 0.7 39
2019-03-24 10:00:00 11.6 8 Sudeste 14 Sudeste 0 855.5 0.7 43
2019-03-24 09:00:00 8.3 4 Sudeste 11 Sur 0 855.3 0.5 52
2019-03-24 08:00:00 5.3 8 Sur 12 Sur 0 855 0.4 58
2019-03-24 07:00:00 4.8 7 Sur 16 Sur 0 854.8 0.4 58
2019-03-24 06:00:00 4.9 7 Sur 15 Sur 0 854.8 0.3 58
2019-03-24 05:00:00 5.1 7 Sur 14 Sudeste 0 854.6 0.1 57
2019-03-24 04:00:00 5.3 8 Sur 12 Sudeste 0 854.4 -0.4 56
2019-03-24 03:00:00 5.2 8 Sudeste 14 Sudeste 0 854.5 -0.6 58
2019-03-24 02:00:00 5.2 7 Sudeste 10 Sur 0 854.5 -0.6 61
2019-03-24 01:00:00 5.3 5 Sudeste 10 Sur 0 854.8 -0.3 60
2019-03-24 00:00:00 5.7 4 Sudeste 11 Sudeste 0 855.1 0.2 57
2019-03-23 23:00:00 4.9 4 Sudeste 10 Sudeste 0 855.1 0.6 61
2019-03-23 22:00:00 5 3 Sudeste 10 Sudeste 0 855.1 1 63
2019-03-23 21:00:00 5.4 6 Sur 12 Sur 0 854.9 1.2 62
2019-03-23 20:00:00 6.2 5 Noroeste 18 Oeste 0 854.5 0.8 63
2019-03-23 19:00:00 8.2 14 Oeste 22 Noroeste 0 854.1 0.2 58
2019-03-23 18:00:00 11 16 Noroeste 26 Noroeste 0 853.7 -0.5 45
2019-03-23 17:00:00 12.2 16 Noroeste 30 Noroeste 0 853.7 -1 40
2019-03-23 16:00:00 11.8 13 Noroeste 25 Oeste 0 853.9 -1.4 41
2019-03-23 15:00:00 15.6 8 Sur 27 Sudoeste 0 854.2 -1.3 26
2019-03-23 14:00:00 14.6 8 Sudeste 33 Sudoeste 0 854.7 -0.9 29
2019-03-23 13:00:00 13.9 10 Sur 23 Sur 0 855.3 -0.5 28
2019-03-23 12:00:00 12.6 11 Sudeste 22 Sudeste 0 855.5 -0.1 31
2019-03-23 11:00:00 11 12 Sudeste 20 Sudeste 0 855.6 0.3 35
2019-03-23 10:00:00 8.9 11 Sudeste 16 Sudeste 0 855.8 0.5 43
2019-03-23 09:00:00 5.7 7 Sudeste 10 Sudeste 0 855.6 0.4 53
2019-03-23 08:00:00 2.2 6 Sudeste 19 Sur 0 855.3 0.3 60
2019-03-23 07:00:00 2.3 13 Sur 18 Sur 0 855.3 0 60
2019-03-23 06:00:00 2.4 13 Sur 22 Sur 0 855.2 -0.4 59
2019-03-23 05:00:00 3 15 Sur 22 Sur 0 855 -0.6 57
2019-03-23 04:00:00 3 14 Sur 21 Sur 0 855.3 -0.3 58
2019-03-23 03:00:00 2.9 12 Sudeste 18 Sudeste 0 855.6 -0.3 59
2019-03-23 02:00:00 2.4 12 Sudeste 15 Sudeste 0 855.6 -0.5 62
2019-03-23 01:00:00 3.1 12 Sur 21 Sur 0 855.6 -0.2 59
2019-03-23 00:00:00 3.4 10 Sur 17 Sur 0 855.9 0.4 59
2019-03-22 23:00:00 3.7 7 Sudeste 11 Sur 0 856.1 1 65
2019-03-22 22:00:00 4.2 7 Sur 12 Sur 0 855.8 1 78
2019-03-22 21:00:00 3.5 4 Noroeste 14 Noroeste 0 855.5 1.1 79
2019-03-22 20:00:00 4.8 10 Noroeste 20 Oeste 0 855.1 0.7 77
2019-03-22 19:00:00 6.8 14 Oeste 27 Noroeste 0 854.8 0.1 69
2019-03-22 18:00:00 9 18 Noroeste 33 Noroeste 0 854.4 -0.4 54
2019-03-22 17:00:00 11 16 Noroeste 29 Noroeste 0 854.4 -0.6 45
2019-03-22 16:00:00 11.4 17 Noroeste 29 Noroeste 0 854.7 -0.7 40
2019-03-22 15:00:00 12.2 12 Noroeste 23 Noroeste 0 854.8 -0.7 40
2019-03-22 14:00:00 11.9 7 Noroeste 15 Norte 0 855 -0.5 30
2019-03-22 13:00:00 12.8 5 Sudeste 14 Sudeste 0 855.4 0.1 31
2019-03-22 12:00:00 11 4 Nordeste 14 Sudeste 0 855.5 0.4 37
2019-03-22 11:00:00 9.2 8 Sudeste 16 Sudeste 0 855.5 0.7 44
2019-03-22 10:00:00 6.6 5 Sudeste 12 Sudeste 0 855.3 0.8 54
2019-03-22 09:00:00 2.1 9 Sudeste 14 Sudeste 0 855.1 0.8 69
2019-03-22 08:00:00 -0.6 9 Sudeste 12 Sudeste 0 854.8 0.6 77
2019-03-22 07:00:00 -1.1 9 Sudeste 13 Sudeste 0 854.5 0.3 79
2019-03-22 06:00:00 -0.8 9 Sudeste 12 Sudeste 0 854.3 0 78
2019-03-22 05:00:00 -0.6 8 Sudeste 11 Sudeste 0 854.2 -0.1 77
2019-03-22 04:00:00 -0.1 7 Sudeste 13 Sudeste 0 854.2 -0.4 74
2019-03-22 03:00:00 0.4 8 Sudeste 12 Sudeste 0 854.3 -0.2 72
2019-03-22 02:00:00 0.5 9 Sur 17 Sur 0 854.3 -0.2 70
2019-03-22 01:00:00 1.1 10 Sur 19 Sur 0 854.6 0.4 68
2019-03-22 00:00:00 2 12 Sur 18 Sur 0 854.5 0.6 63
2019-03-21 23:00:00 2.6 8 Sur 19 Sur 0 854.5 0.8 61
2019-03-21 22:00:00 3.4 9 Sur 17 Sur 0 854.2 0.6 78
2019-03-21 21:00:00 2.7 2 Noroeste 13 Norte 0 853.9 0.4 73
2019-03-21 20:00:00 2.9 12 Noroeste 16 Noroeste 0 853.7 -0.1 88
2019-03-21 19:00:00 4.4 13 Noroeste 20 Noroeste 0 853.6 -0.6 83
2019-03-21 18:00:00 6.7 15 Noroeste 23 Norte 0 853.5 -1.2 74
2019-03-21 17:00:00 8.5 15 Noroeste 24 Noroeste 0 853.8 -1.3 64
2019-03-21 16:00:00 8.6 19 Noroeste 26 Noroeste 0 854.2 -1.2 62
2019-03-21 15:00:00 8.2 19 Noroeste 26 Noroeste 0 854.7 -0.8 66
2019-03-21 14:00:00 7.7 18 Noroeste 24 Noroeste 0 855.1 -0.4 65
2019-03-21 13:00:00 7.7 14 Noroeste 20 Noroeste 0 855.4 -0.1 64
2019-03-21 12:00:00 10.6 7 Sudeste 21 Sudeste 0 855.5 -0.1 31
2019-03-21 11:00:00 8.1 14 Sudeste 22 Sur 0 855.5 0 37
2019-03-21 10:00:00 4.8 12 Sudeste 17 Sudeste 0 855.5 0.2 51
2019-03-21 09:00:00 1.4 10 Sudeste 17 Sudeste 0 855.6 0.4 68
2019-03-21 08:00:00 -1.3 10 Sudeste 13 Sudeste 0 855.5 0.4 73
2019-03-21 07:00:00 -1 10 Sudeste 14 Sudeste 0 855.3 0.2 67
2019-03-21 06:00:00 0.3 8 Sudeste 12 Sudeste 0 855.2 -0.3 60
2019-03-21 05:00:00 1.5 3 Sudeste 10 Noroeste 0 855.1 -0.6 48
2019-03-21 04:00:00 1.7 2 Oeste 6 Oeste 0 855.1 -0.7 50
2019-03-21 03:00:00 1.4 2 Este 8 Sudeste 0 855.5 -0.5 44
2019-03-21 02:00:00 1.7 6 Sudeste 15 Sur 0 855.7 -0.6 45
2019-03-21 01:00:00 2 6 Sur 17 Sur 0 855.8 -0.6 45
2019-03-21 00:00:00 1.5 4 Sudeste 15 Sur 0 856 -0.4 67